sensor_id;sensor_type;location;lat;lon;timestamp;temperature;humidity
47576;DHT22;33304;52.456;13.328;2023-02-11T00:01:21;3.00;43.50
47576;DHT22;33304;52.456;13.328;2023-02-11T00:03:51;3.10;43.50
47576;DHT22;33304;52.456;13.328;2023-02-11T00:06:19;3.10;43.70
47576;DHT22;33304;52.456;13.328;2023-02-11T00:08:46;3.20;43.10
47576;DHT22;33304;52.456;13.328;2023-02-11T00:11:14;3.20;43.00
47576;DHT22;33304;52.456;13.328;2023-02-11T00:13:41;3.10;42.90
47576;DHT22;33304;52.456;13.328;2023-02-11T00:16:10;3.20;42.70
47576;DHT22;33304;52.456;13.328;2023-02-11T00:18:38;3.10;42.80
47576;DHT22;33304;52.456;13.328;2023-02-11T00:21:07;3.10;43.00
47576;DHT22;33304;52.456;13.328;2023-02-11T00:23:35;3.10;43.10
47576;DHT22;33304;52.456;13.328;2023-02-11T00:26:03;3.10;43.60
47576;DHT22;33304;52.456;13.328;2023-02-11T00:28:30;3.10;43.30
47576;DHT22;33304;52.456;13.328;2023-02-11T00:30:57;3.20;43.40
47576;DHT22;33304;52.456;13.328;2023-02-11T00:33:26;3.20;42.80
47576;DHT22;33304;52.456;13.328;2023-02-11T00:35:54;3.20;43.00
47576;DHT22;33304;52.456;13.328;2023-02-11T00:38:22;3.30;42.60
47576;DHT22;33304;52.456;13.328;2023-02-11T00:40:49;3.30;42.10
47576;DHT22;33304;52.456;13.328;2023-02-11T00:43:16;3.30;42.80
47576;DHT22;33304;52.456;13.328;2023-02-11T00:45:43;3.30;42.60
47576;DHT22;33304;52.456;13.328;2023-02-11T00:48:11;3.40;41.90
47576;DHT22;33304;52.456;13.328;2023-02-11T00:50:38;3.30;42.40
47576;DHT22;33304;52.456;13.328;2023-02-11T00:53:05;3.40;42.30
47576;DHT22;33304;52.456;13.328;2023-02-11T00:55:33;3.40;42.10
47576;DHT22;33304;52.456;13.328;2023-02-11T00:58:00;3.50;41.70
47576;DHT22;33304;52.456;13.328;2023-02-11T01:00:27;3.50;41.80
47576;DHT22;33304;52.456;13.328;2023-02-11T01:02:55;3.50;41.70
47576;DHT22;33304;52.456;13.328;2023-02-11T01:05:22;3.50;41.60
47576;DHT22;33304;52.456;13.328;2023-02-11T01:07:49;3.60;41.90
47576;DHT22;33304;52.456;13.328;2023-02-11T01:10:17;3.40;42.00
47576;DHT22;33304;52.456;13.328;2023-02-11T01:12:45;3.50;42.60
47576;DHT22;33304;52.456;13.328;2023-02-11T01:15:13;3.40;42.80
47576;DHT22;33304;52.456;13.328;2023-02-11T01:17:41;3.50;43.10
47576;DHT22;33304;52.456;13.328;2023-02-11T01:20:12;3.50;43.00
47576;DHT22;33304;52.456;13.328;2023-02-11T01:22:40;3.50;42.90
47576;DHT22;33304;52.456;13.328;2023-02-11T01:25:08;3.50;42.90
47576;DHT22;33304;52.456;13.328;2023-02-11T01:27:35;3.40;43.10
47576;DHT22;33304;52.456;13.328;2023-02-11T01:30:06;3.50;43.20
47576;DHT22;33304;52.456;13.328;2023-02-11T01:32:33;3.50;43.10
47576;DHT22;33304;52.456;13.328;2023-02-11T01:35:01;3.60;43.20
47576;DHT22;33304;52.456;13.328;2023-02-11T01:37:28;3.70;42.50
47576;DHT22;33304;52.456;13.328;2023-02-11T01:39:56;3.70;42.40
47576;DHT22;33304;52.456;13.328;2023-02-11T01:42:24;3.70;42.20
47576;DHT22;33304;52.456;13.328;2023-02-11T01:44:53;3.70;42.70
47576;DHT22;33304;52.456;13.328;2023-02-11T01:47:21;3.70;43.40
47576;DHT22;33304;52.456;13.328;2023-02-11T01:49:51;3.80;43.20
47576;DHT22;33304;52.456;13.328;2023-02-11T01:52:25;3.90;43.10
47576;DHT22;33304;52.456;13.328;2023-02-11T01:54:56;4.00;42.70
47576;DHT22;33304;52.456;13.328;2023-02-11T01:57:46;4.00;42.10
47576;DHT22;33304;52.456;13.328;2023-02-11T02:00:17;4.10;42.20
47576;DHT22;33304;52.456;13.328;2023-02-11T02:02:55;4.10;42.50
47576;DHT22;33304;52.456;13.328;2023-02-11T02:05:28;4.10;42.90
47576;DHT22;33304;52.456;13.328;2023-02-11T02:08:05;4.10;42.50
47576;DHT22;33304;52.456;13.328;2023-02-11T02:10:37;4.10;42.40
47576;DHT22;33304;52.456;13.328;2023-02-11T02:13:06;4.20;42.30
47576;DHT22;33304;52.456;13.328;2023-02-11T02:15:35;4.20;42.20
47576;DHT22;33304;52.456;13.328;2023-02-11T02:18:15;4.30;42.20
47576;DHT22;33304;52.456;13.328;2023-02-11T02:21:21;4.30;42.60
47576;DHT22;33304;52.456;13.328;2023-02-11T02:27:24;4.40;42.40
47576;DHT22;33304;52.456;13.328;2023-02-11T02:30:33;4.50;41.90
47576;DHT22;33304;52.456;13.328;2023-02-11T02:33:13;4.50;42.00
47576;DHT22;33304;52.456;13.328;2023-02-11T02:35:48;4.50;42.10
47576;DHT22;33304;52.456;13.328;2023-02-11T02:38:24;4.60;42.30
47576;DHT22;33304;52.456;13.328;2023-02-11T02:40:56;4.50;42.40
47576;DHT22;33304;52.456;13.328;2023-02-11T02:43:26;4.50;42.30
47576;DHT22;33304;52.456;13.328;2023-02-11T02:45:53;4.60;42.30
47576;DHT22;33304;52.456;13.328;2023-02-11T02:48:30;4.50;42.70
47576;DHT22;33304;52.456;13.328;2023-02-11T02:51:08;4.60;42.90
47576;DHT22;33304;52.456;13.328;2023-02-11T02:53:45;4.70;43.00
47576;DHT22;33304;52.456;13.328;2023-02-11T02:56:24;4.70;42.70
47576;DHT22;33304;52.456;13.328;2023-02-11T03:01:49;4.70;42.90
47576;DHT22;33304;52.456;13.328;2023-02-11T03:04:23;4.60;43.40
47576;DHT22;33304;52.456;13.328;2023-02-11T03:07:00;4.70;44.20
47576;DHT22;33304;52.456;13.328;2023-02-11T03:09:32;4.80;43.20
47576;DHT22;33304;52.456;13.328;2023-02-11T03:12:03;4.70;43.70
47576;DHT22;33304;52.456;13.328;2023-02-11T03:14:32;4.70;44.00
47576;DHT22;33304;52.456;13.328;2023-02-11T03:17:03;4.80;44.30
47576;DHT22;33304;52.456;13.328;2023-02-11T03:19:34;4.80;44.30
47576;DHT22;33304;52.456;13.328;2023-02-11T03:22:06;4.80;44.00
47576;DHT22;33304;52.456;13.328;2023-02-11T03:24:36;4.90;44.30
47576;DHT22;33304;52.456;13.328;2023-02-11T03:27:09;4.90;44.50
47576;DHT22;33304;52.456;13.328;2023-02-11T03:29:41;4.90;44.80
47576;DHT22;33304;52.456;13.328;2023-02-11T03:32:12;4.90;44.60
47576;DHT22;33304;52.456;13.328;2023-02-11T03:34:46;5.00;44.40
47576;DHT22;33304;52.456;13.328;2023-02-11T03:37:18;5.00;44.50
47576;DHT22;33304;52.456;13.328;2023-02-11T03:39:49;4.90;44.80
47576;DHT22;33304;52.456;13.328;2023-02-11T03:42:18;5.00;45.60
47576;DHT22;33304;52.456;13.328;2023-02-11T03:44:52;5.10;45.30
47576;DHT22;33304;52.456;13.328;2023-02-11T03:47:24;4.90;45.50
47576;DHT22;33304;52.456;13.328;2023-02-11T03:49:54;5.00;45.60
47576;DHT22;33304;52.456;13.328;2023-02-11T03:52:24;5.00;46.10
47576;DHT22;33304;52.456;13.328;2023-02-11T03:54:56;5.00;46.80
47576;DHT22;33304;52.456;13.328;2023-02-11T03:57:23;5.10;46.20
47576;DHT22;33304;52.456;13.328;2023-02-11T03:59:55;5.00;46.50
47576;DHT22;33304;52.456;13.328;2023-02-11T04:02:24;5.00;46.90
47576;DHT22;33304;52.456;13.328;2023-02-11T04:04:54;5.10;47.20
47576;DHT22;33304;52.456;13.328;2023-02-11T04:07:21;5.10;47.10
47576;DHT22;33304;52.456;13.328;2023-02-11T04:09:48;5.10;47.70
47576;DHT22;33304;52.456;13.328;2023-02-11T04:12:15;5.10;47.90
47576;DHT22;33304;52.456;13.328;2023-02-11T04:14:42;5.10;48.30
47576;DHT22;33304;52.456;13.328;2023-02-11T04:17:09;5.00;49.10
47576;DHT22;33304;52.456;13.328;2023-02-11T04:19:37;5.10;49.60
47576;DHT22;33304;52.456;13.328;2023-02-11T04:22:05;5.10;49.60
47576;DHT22;33304;52.456;13.328;2023-02-11T04:24:32;5.20;49.10
47576;DHT22;33304;52.456;13.328;2023-02-11T04:26:59;5.20;49.40
47576;DHT22;33304;52.456;13.328;2023-02-11T04:29:27;5.20;49.40
47576;DHT22;33304;52.456;13.328;2023-02-11T04:31:54;5.10;51.20
47576;DHT22;33304;52.456;13.328;2023-02-11T04:34:21;5.00;51.20
47576;DHT22;33304;52.456;13.328;2023-02-11T04:36:49;5.10;51.20
47576;DHT22;33304;52.456;13.328;2023-02-11T04:39:17;5.20;51.30
47576;DHT22;33304;52.456;13.328;2023-02-11T04:41:44;5.20;51.30
47576;DHT22;33304;52.456;13.328;2023-02-11T04:44:12;5.20;51.30
47576;DHT22;33304;52.456;13.328;2023-02-11T04:46:39;5.10;53.50
47576;DHT22;33304;52.456;13.328;2023-02-11T04:49:06;5.00;55.60
47576;DHT22;33304;52.456;13.328;2023-02-11T04:51:33;5.00;55.80
47576;DHT22;33304;52.456;13.328;2023-02-11T04:54:00;5.10;56.00
47576;DHT22;33304;52.456;13.328;2023-02-11T04:56:29;5.10;56.20
47576;DHT22;33304;52.456;13.328;2023-02-11T04:58:56;5.10;56.60
47576;DHT22;33304;52.456;13.328;2023-02-11T05:01:23;5.10;57.60
47576;DHT22;33304;52.456;13.328;2023-02-11T05:03:50;5.20;56.80
47576;DHT22;33304;52.456;13.328;2023-02-11T05:06:17;5.10;57.10
47576;DHT22;33304;52.456;13.328;2023-02-11T05:08:45;5.00;58.50
47576;DHT22;33304;52.456;13.328;2023-02-11T05:11:15;5.00;59.30
47576;DHT22;33304;52.456;13.328;2023-02-11T05:13:43;5.00;59.30
47576;DHT22;33304;52.456;13.328;2023-02-11T05:16:11;5.00;61.40
47576;DHT22;33304;52.456;13.328;2023-02-11T05:18:39;5.00;63.60
47576;DHT22;33304;52.456;13.328;2023-02-11T05:21:07;5.00;66.40
47576;DHT22;33304;52.456;13.328;2023-02-11T05:23:35;5.00;66.40
47576;DHT22;33304;52.456;13.328;2023-02-11T05:26:03;5.00;67.40
47576;DHT22;33304;52.456;13.328;2023-02-11T05:28:30;5.00;69.50
47576;DHT22;33304;52.456;13.328;2023-02-11T05:30:59;5.00;70.30
47576;DHT22;33304;52.456;13.328;2023-02-11T05:33:27;5.00;72.70
47576;DHT22;33304;52.456;13.328;2023-02-11T05:35:57;5.00;73.20
47576;DHT22;33304;52.456;13.328;2023-02-11T05:38:24;5.00;75.80
47576;DHT22;33304;52.456;13.328;2023-02-11T05:40:52;5.00;77.50
47576;DHT22;33304;52.456;13.328;2023-02-11T05:43:19;5.00;77.90
47576;DHT22;33304;52.456;13.328;2023-02-11T05:45:46;5.00;80.00
47576;DHT22;33304;52.456;13.328;2023-02-11T05:48:15;5.10;83.80
47576;DHT22;33304;52.456;13.328;2023-02-11T05:50:42;5.10;83.10
47576;DHT22;33304;52.456;13.328;2023-02-11T05:53:10;5.10;83.10
47576;DHT22;33304;52.456;13.328;2023-02-11T05:55:37;5.10;92.80
47576;DHT22;33304;52.456;13.328;2023-02-11T05:58:05;5.00;95.40
47576;DHT22;33304;52.456;13.328;2023-02-11T06:00:32;5.00;99.00
47576;DHT22;33304;52.456;13.328;2023-02-11T06:03:00;5.00;99.90
47576;DHT22;33304;52.456;13.328;2023-02-11T06:05:30;5.00;99.90
47576;DHT22;33304;52.456;13.328;2023-02-11T06:07:58;5.00;99.90
47576;DHT22;33304;52.456;13.328;2023-02-11T06:10:25;5.10;99.90
47576;DHT22;33304;52.456;13.328;2023-02-11T06:12:52;5.20;99.90
47576;DHT22;33304;52.456;13.328;2023-02-11T06:15:19;5.10;99.90
47576;DHT22;33304;52.456;13.328;2023-02-11T06:17:46;5.10;99.90
47576;DHT22;33304;52.456;13.328;2023-02-11T06:20:13;5.10;99.90
47576;DHT22;33304;52.456;13.328;2023-02-11T06:22:43;5.20;99.90
47576;DHT22;33304;52.456;13.328;2023-02-11T06:25:10;5.20;99.90
47576;DHT22;33304;52.456;13.328;2023-02-11T06:27:38;5.30;99.90
47576;DHT22;33304;52.456;13.328;2023-02-11T06:30:06;5.30;99.90
47576;DHT22;33304;52.456;13.328;2023-02-11T06:32:34;5.30;99.90
47576;DHT22;33304;52.456;13.328;2023-02-11T06:35:01;5.40;99.90
47576;DHT22;33304;52.456;13.328;2023-02-11T06:37:28;5.40;99.90
47576;DHT22;33304;52.456;13.328;2023-02-11T06:39:56;5.40;99.90
47576;DHT22;33304;52.456;13.328;2023-02-11T06:42:23;5.50;99.90
47576;DHT22;33304;52.456;13.328;2023-02-11T06:44:50;5.40;99.90
47576;DHT22;33304;52.456;13.328;2023-02-11T06:47:17;5.40;99.90
47576;DHT22;33304;52.456;13.328;2023-02-11T06:49:44;5.40;99.90
47576;DHT22;33304;52.456;13.328;2023-02-11T06:52:12;5.40;99.90
47576;DHT22;33304;52.456;13.328;2023-02-11T06:54:39;5.40;99.90
47576;DHT22;33304;52.456;13.328;2023-02-11T06:57:07;5.40;99.90
47576;DHT22;33304;52.456;13.328;2023-02-11T06:59:34;5.30;99.90
47576;DHT22;33304;52.456;13.328;2023-02-11T07:02:01;5.40;99.90
47576;DHT22;33304;52.456;13.328;2023-02-11T07:04:28;5.40;99.90
47576;DHT22;33304;52.456;13.328;2023-02-11T07:06:55;5.40;99.90
47576;DHT22;33304;52.456;13.328;2023-02-11T07:09:22;5.40;99.90
47576;DHT22;33304;52.456;13.328;2023-02-11T07:11:49;5.40;99.90
47576;DHT22;33304;52.456;13.328;2023-02-11T07:14:17;5.40;99.90
47576;DHT22;33304;52.456;13.328;2023-02-11T07:16:45;5.30;99.90
47576;DHT22;33304;52.456;13.328;2023-02-11T07:19:12;5.30;99.90
47576;DHT22;33304;52.456;13.328;2023-02-11T07:21:39;5.40;99.90
47576;DHT22;33304;52.456;13.328;2023-02-11T07:24:06;5.30;99.90
47576;DHT22;33304;52.456;13.328;2023-02-11T07:26:34;5.30;99.90
47576;DHT22;33304;52.456;13.328;2023-02-11T07:29:01;5.40;99.90
47576;DHT22;33304;52.456;13.328;2023-02-11T07:31:30;5.40;99.90
47576;DHT22;33304;52.456;13.328;2023-02-11T07:33:59;5.40;99.90
47576;DHT22;33304;52.456;13.328;2023-02-11T07:36:27;5.50;99.90
47576;DHT22;33304;52.456;13.328;2023-02-11T07:38:54;5.50;99.90
47576;DHT22;33304;52.456;13.328;2023-02-11T07:41:23;5.50;99.90
47576;DHT22;33304;52.456;13.328;2023-02-11T07:43:50;5.50;99.90
47576;DHT22;33304;52.456;13.328;2023-02-11T07:46:19;5.60;99.90
47576;DHT22;33304;52.456;13.328;2023-02-11T07:48:48;5.60;99.90
47576;DHT22;33304;52.456;13.328;2023-02-11T07:51:17;5.70;99.90
47576;DHT22;33304;52.456;13.328;2023-02-11T07:53:44;5.70;99.90
47576;DHT22;33304;52.456;13.328;2023-02-11T07:56:14;5.80;99.90
47576;DHT22;33304;52.456;13.328;2023-02-11T07:58:42;5.80;99.90
47576;DHT22;33304;52.456;13.328;2023-02-11T08:01:10;5.90;99.90
47576;DHT22;33304;52.456;13.328;2023-02-11T08:03:38;5.90;99.90
47576;DHT22;33304;52.456;13.328;2023-02-11T08:06:09;5.90;99.90
47576;DHT22;33304;52.456;13.328;2023-02-11T08:08:37;5.90;99.90
47576;DHT22;33304;52.456;13.328;2023-02-11T08:11:06;6.00;99.90
47576;DHT22;33304;52.456;13.328;2023-02-11T08:13:33;6.00;99.90
47576;DHT22;33304;52.456;13.328;2023-02-11T08:16:01;6.00;99.90
47576;DHT22;33304;52.456;13.328;2023-02-11T08:18:28;6.10;99.90
47576;DHT22;33304;52.456;13.328;2023-02-11T08:20:56;6.10;99.90
47576;DHT22;33304;52.456;13.328;2023-02-11T08:23:24;6.10;99.90
47576;DHT22;33304;52.456;13.328;2023-02-11T08:25:51;6.10;99.90
47576;DHT22;33304;52.456;13.328;2023-02-11T08:28:18;6.10;99.90
47576;DHT22;33304;52.456;13.328;2023-02-11T08:30:45;6.20;99.90
47576;DHT22;33304;52.456;13.328;2023-02-11T08:33:12;6.20;99.90
47576;DHT22;33304;52.456;13.328;2023-02-11T08:35:39;6.20;99.90
47576;DHT22;33304;52.456;13.328;2023-02-11T08:38:06;6.20;99.90
47576;DHT22;33304;52.456;13.328;2023-02-11T08:40:35;6.30;99.90
47576;DHT22;33304;52.456;13.328;2023-02-11T08:43:02;6.30;99.90
47576;DHT22;33304;52.456;13.328;2023-02-11T08:45:29;6.30;99.90
47576;DHT22;33304;52.456;13.328;2023-02-11T08:47:57;6.30;99.90
47576;DHT22;33304;52.456;13.328;2023-02-11T08:50:24;6.30;99.90
47576;DHT22;33304;52.456;13.328;2023-02-11T08:52:53;6.30;99.90
47576;DHT22;33304;52.456;13.328;2023-02-11T08:55:20;6.30;99.90
47576;DHT22;33304;52.456;13.328;2023-02-11T08:57:48;6.30;99.90
47576;DHT22;33304;52.456;13.328;2023-02-11T09:00:17;6.30;99.90
47576;DHT22;33304;52.456;13.328;2023-02-11T09:02:44;6.30;99.90
47576;DHT22;33304;52.456;13.328;2023-02-11T09:05:11;6.40;99.90
47576;DHT22;33304;52.456;13.328;2023-02-11T09:07:38;6.40;99.90
47576;DHT22;33304;52.456;13.328;2023-02-11T09:10:06;6.40;99.90
47576;DHT22;33304;52.456;13.328;2023-02-11T09:12:33;6.30;99.90
47576;DHT22;33304;52.456;13.328;2023-02-11T09:15:02;6.40;99.90
47576;DHT22;33304;52.456;13.328;2023-02-11T09:17:29;6.30;99.90
47576;DHT22;33304;52.456;13.328;2023-02-11T09:19:56;6.30;99.90
47576;DHT22;33304;52.456;13.328;2023-02-11T09:22:23;6.40;99.90
47576;DHT22;33304;52.456;13.328;2023-02-11T09:24:50;6.50;99.90
47576;DHT22;33304;52.456;13.328;2023-02-11T09:27:17;6.50;99.90
47576;DHT22;33304;52.456;13.328;2023-02-11T09:29:44;6.40;99.90
47576;DHT22;33304;52.456;13.328;2023-02-11T09:32:12;6.50;99.90
47576;DHT22;33304;52.456;13.328;2023-02-11T09:34:39;6.60;99.90
47576;DHT22;33304;52.456;13.328;2023-02-11T09:37:07;6.50;99.90
47576;DHT22;33304;52.456;13.328;2023-02-11T09:39:34;6.60;99.90
47576;DHT22;33304;52.456;13.328;2023-02-11T09:42:23;6.60;99.90
47576;DHT22;33304;52.456;13.328;2023-02-11T09:44:56;6.60;99.90
47576;DHT22;33304;52.456;13.328;2023-02-11T09:47:29;6.60;99.90
47576;DHT22;33304;52.456;13.328;2023-02-11T09:50:00;6.60;99.90
47576;DHT22;33304;52.456;13.328;2023-02-11T09:52:36;6.60;99.90
47576;DHT22;33304;52.456;13.328;2023-02-11T09:55:16;6.60;99.90
47576;DHT22;33304;52.456;13.328;2023-02-11T09:57:44;6.70;99.90
47576;DHT22;33304;52.456;13.328;2023-02-11T10:00:18;6.70;99.90
47576;DHT22;33304;52.456;13.328;2023-02-11T10:03:05;6.70;99.90
47576;DHT22;33304;52.456;13.328;2023-02-11T10:05:43;6.80;99.90
47576;DHT22;33304;52.456;13.328;2023-02-11T10:08:17;6.80;99.90
47576;DHT22;33304;52.456;13.328;2023-02-11T10:10:49;6.80;99.90
47576;DHT22;33304;52.456;13.328;2023-02-11T10:13:46;6.80;99.90
47576;DHT22;33304;52.456;13.328;2023-02-11T10:16:28;6.80;99.90
47576;DHT22;33304;52.456;13.328;2023-02-11T10:22:02;6.90;99.90
47576;DHT22;33304;52.456;13.328;2023-02-11T10:24:32;6.80;99.90
47576;DHT22;33304;52.456;13.328;2023-02-11T10:27:01;6.80;99.90
47576;DHT22;33304;52.456;13.328;2023-02-11T10:29:37;6.80;99.90
47576;DHT22;33304;52.456;13.328;2023-02-11T10:32:14;6.70;99.90
47576;DHT22;33304;52.456;13.328;2023-02-11T10:34:48;6.70;99.90
47576;DHT22;33304;52.456;13.328;2023-02-11T10:37:15;6.80;99.90
47576;DHT22;33304;52.456;13.328;2023-02-11T10:39:42;6.80;99.90
47576;DHT22;33304;52.456;13.328;2023-02-11T10:42:11;6.80;99.90
47576;DHT22;33304;52.456;13.328;2023-02-11T10:44:41;6.90;99.90
47576;DHT22;33304;52.456;13.328;2023-02-11T10:47:12;7.00;99.90
47576;DHT22;33304;52.456;13.328;2023-02-11T10:49:43;7.00;99.90
47576;DHT22;33304;52.456;13.328;2023-02-11T10:52:23;6.90;99.90
47576;DHT22;33304;52.456;13.328;2023-02-11T10:54:59;6.80;99.90
47576;DHT22;33304;52.456;13.328;2023-02-11T10:57:30;6.80;99.90
47576;DHT22;33304;52.456;13.328;2023-02-11T11:00:02;6.80;99.90
47576;DHT22;33304;52.456;13.328;2023-02-11T11:02:33;6.80;99.90
47576;DHT22;33304;52.456;13.328;2023-02-11T11:05:03;6.80;99.90
47576;DHT22;33304;52.456;13.328;2023-02-11T11:07:33;6.80;99.90
47576;DHT22;33304;52.456;13.328;2023-02-11T11:10:03;6.70;99.90
47576;DHT22;33304;52.456;13.328;2023-02-11T11:12:35;6.80;99.90
47576;DHT22;33304;52.456;13.328;2023-02-11T11:15:15;6.70;99.90
47576;DHT22;33304;52.456;13.328;2023-02-11T11:17:43;6.80;99.90
47576;DHT22;33304;52.456;13.328;2023-02-11T11:20:25;6.70;99.90
47576;DHT22;33304;52.456;13.328;2023-02-11T11:23:09;6.80;99.90
47576;DHT22;33304;52.456;13.328;2023-02-11T11:25:40;6.80;99.90
47576;DHT22;33304;52.456;13.328;2023-02-11T11:28:19;6.80;99.90
47576;DHT22;33304;52.456;13.328;2023-02-11T11:30:46;6.80;99.90
47576;DHT22;33304;52.456;13.328;2023-02-11T11:33:19;6.80;99.90
47576;DHT22;33304;52.456;13.328;2023-02-11T11:35:56;6.80;99.90
47576;DHT22;33304;52.456;13.328;2023-02-11T11:38:26;6.80;99.90
47576;DHT22;33304;52.456;13.328;2023-02-11T11:41:16;6.80;99.90
47576;DHT22;33304;52.456;13.328;2023-02-11T11:44:03;6.80;99.90
47576;DHT22;33304;52.456;13.328;2023-02-11T11:46:33;6.80;99.90
47576;DHT22;33304;52.456;13.328;2023-02-11T11:49:13;6.90;99.90
47576;DHT22;33304;52.456;13.328;2023-02-11T11:51:48;6.90;99.90
47576;DHT22;33304;52.456;13.328;2023-02-11T11:54:19;6.90;99.90
47576;DHT22;33304;52.456;13.328;2023-02-11T11:56:51;6.90;99.90
47576;DHT22;33304;52.456;13.328;2023-02-11T11:59:20;6.90;99.90
47576;DHT22;33304;52.456;13.328;2023-02-11T12:04:53;6.90;99.90
47576;DHT22;33304;52.456;13.328;2023-02-11T12:07:33;7.00;99.90
47576;DHT22;33304;52.456;13.328;2023-02-11T12:10:23;6.90;99.90
47576;DHT22;33304;52.456;13.328;2023-02-11T12:13:01;6.90;99.90
47576;DHT22;33304;52.456;13.328;2023-02-11T12:15:37;7.00;99.90
47576;DHT22;33304;52.456;13.328;2023-02-11T12:18:16;7.00;99.90
47576;DHT22;33304;52.456;13.328;2023-02-11T12:20:58;7.00;99.90
47576;DHT22;33304;52.456;13.328;2023-02-11T12:23:40;7.10;99.90
47576;DHT22;33304;52.456;13.328;2023-02-11T12:26:13;7.10;99.90
47576;DHT22;33304;52.456;13.328;2023-02-11T12:28:54;7.20;99.90
47576;DHT22;33304;52.456;13.328;2023-02-11T12:31:31;7.20;99.90
47576;DHT22;33304;52.456;13.328;2023-02-11T12:34:28;7.20;99.90
47576;DHT22;33304;52.456;13.328;2023-02-11T12:37:05;7.20;99.90
47576;DHT22;33304;52.456;13.328;2023-02-11T12:39:41;7.20;99.90
47576;DHT22;33304;52.456;13.328;2023-02-11T12:42:22;7.20;99.90
47576;DHT22;33304;52.456;13.328;2023-02-11T12:45:19;7.30;99.90
47576;DHT22;33304;52.456;13.328;2023-02-11T12:48:04;7.30;99.90
47576;DHT22;33304;52.456;13.328;2023-02-11T12:50:43;7.30;99.90
47576;DHT22;33304;52.456;13.328;2023-02-11T12:53:24;7.30;99.90
47576;DHT22;33304;52.456;13.328;2023-02-11T12:55:59;7.30;99.90
47576;DHT22;33304;52.456;13.328;2023-02-11T12:58:32;7.40;99.90
47576;DHT22;33304;52.456;13.328;2023-02-11T13:01:03;7.40;99.90
47576;DHT22;33304;52.456;13.328;2023-02-11T13:03:36;7.30;99.90
47576;DHT22;33304;52.456;13.328;2023-02-11T13:06:07;7.40;99.90
47576;DHT22;33304;52.456;13.328;2023-02-11T13:08:39;7.30;99.90
47576;DHT22;33304;52.456;13.328;2023-02-11T13:11:11;7.30;99.90
47576;DHT22;33304;52.456;13.328;2023-02-11T13:13:46;7.40;99.90
47576;DHT22;33304;52.456;13.328;2023-02-11T13:16:19;7.30;99.90
47576;DHT22;33304;52.456;13.328;2023-02-11T13:18:59;7.40;99.90
47576;DHT22;33304;52.456;13.328;2023-02-11T13:21:35;7.40;99.90
47576;DHT22;33304;52.456;13.328;2023-02-11T13:24:12;7.40;99.90
47576;DHT22;33304;52.456;13.328;2023-02-11T13:26:46;7.40;99.90
47576;DHT22;33304;52.456;13.328;2023-02-11T13:29:26;7.30;99.90
47576;DHT22;33304;52.456;13.328;2023-02-11T13:32:04;7.30;99.90
47576;DHT22;33304;52.456;13.328;2023-02-11T13:34:53;7.40;99.90
47576;DHT22;33304;52.456;13.328;2023-02-11T13:37:21;7.40;99.90
47576;DHT22;33304;52.456;13.328;2023-02-11T13:39:58;7.30;99.90
47576;DHT22;33304;52.456;13.328;2023-02-11T13:42:26;7.40;99.90
47576;DHT22;33304;52.456;13.328;2023-02-11T13:44:55;7.50;99.90
47576;DHT22;33304;52.456;13.328;2023-02-11T13:47:29;7.50;99.90
47576;DHT22;33304;52.456;13.328;2023-02-11T13:49:57;7.50;99.90
47576;DHT22;33304;52.456;13.328;2023-02-11T13:52:28;7.50;99.90
47576;DHT22;33304;52.456;13.328;2023-02-11T13:55:01;7.50;99.90
47576;DHT22;33304;52.456;13.328;2023-02-11T13:57:32;7.50;99.90
47576;DHT22;33304;52.456;13.328;2023-02-11T14:03:16;7.50;99.90
47576;DHT22;33304;52.456;13.328;2023-02-11T14:06:13;7.40;99.90
47576;DHT22;33304;52.456;13.328;2023-02-11T14:09:08;7.40;99.90
47576;DHT22;33304;52.456;13.328;2023-02-11T14:11:48;7.40;99.90
47576;DHT22;33304;52.456;13.328;2023-02-11T14:14:22;7.30;99.90
47576;DHT22;33304;52.456;13.328;2023-02-11T14:17:27;7.40;99.90
47576;DHT22;33304;52.456;13.328;2023-02-11T14:19:55;7.40;99.90
47576;DHT22;33304;52.456;13.328;2023-02-11T14:22:26;7.30;99.90
47576;DHT22;33304;52.456;13.328;2023-02-11T14:24:56;7.40;99.90
47576;DHT22;33304;52.456;13.328;2023-02-11T14:27:34;7.40;99.90
47576;DHT22;33304;52.456;13.328;2023-02-11T14:33:37;7.40;99.90
47576;DHT22;33304;52.456;13.328;2023-02-11T14:36:18;7.40;99.90
47576;DHT22;33304;52.456;13.328;2023-02-11T14:38:57;7.40;99.90
47576;DHT22;33304;52.456;13.328;2023-02-11T14:41:31;7.40;99.90
47576;DHT22;33304;52.456;13.328;2023-02-11T14:44:00;7.40;99.90
47576;DHT22;33304;52.456;13.328;2023-02-11T14:46:29;7.30;99.90
47576;DHT22;33304;52.456;13.328;2023-02-11T14:49:01;7.30;99.90
47576;DHT22;33304;52.456;13.328;2023-02-11T14:51:30;7.40;99.90
47576;DHT22;33304;52.456;13.328;2023-02-11T14:54:01;7.30;99.90
47576;DHT22;33304;52.456;13.328;2023-02-11T14:56:30;7.30;99.90
47576;DHT22;33304;52.456;13.328;2023-02-11T14:58:59;7.40;99.90
47576;DHT22;33304;52.456;13.328;2023-02-11T15:01:29;7.40;99.90
47576;DHT22;33304;52.456;13.328;2023-02-11T15:04:01;7.40;99.90
47576;DHT22;33304;52.456;13.328;2023-02-11T15:06:30;7.30;99.90
47576;DHT22;33304;52.456;13.328;2023-02-11T15:09:00;7.30;99.90
47576;DHT22;33304;52.456;13.328;2023-02-11T15:11:31;7.30;99.90
47576;DHT22;33304;52.456;13.328;2023-02-11T15:14:06;7.40;99.90
47576;DHT22;33304;52.456;13.328;2023-02-11T15:16:39;7.30;99.90
47576;DHT22;33304;52.456;13.328;2023-02-11T15:19:18;7.30;99.90
47576;DHT22;33304;52.456;13.328;2023-02-11T15:21:45;7.30;99.90
47576;DHT22;33304;52.456;13.328;2023-02-11T15:24:25;7.30;99.90
47576;DHT22;33304;52.456;13.328;2023-02-11T15:26:57;7.30;99.90
47576;DHT22;33304;52.456;13.328;2023-02-11T15:29:24;7.40;99.90
47576;DHT22;33304;52.456;13.328;2023-02-11T15:32:06;7.30;99.90
47576;DHT22;33304;52.456;13.328;2023-02-11T15:34:38;7.30;99.90
47576;DHT22;33304;52.456;13.328;2023-02-11T15:37:05;7.30;99.90
47576;DHT22;33304;52.456;13.328;2023-02-11T15:39:37;7.40;99.90
47576;DHT22;33304;52.456;13.328;2023-02-11T15:42:16;7.40;99.90
47576;DHT22;33304;52.456;13.328;2023-02-11T15:44:44;7.40;99.90
47576;DHT22;33304;52.456;13.328;2023-02-11T15:47:12;7.40;99.90
47576;DHT22;33304;52.456;13.328;2023-02-11T15:49:45;7.40;99.90
47576;DHT22;33304;52.456;13.328;2023-02-11T15:52:14;7.40;99.90
47576;DHT22;33304;52.456;13.328;2023-02-11T15:54:48;7.40;99.90
47576;DHT22;33304;52.456;13.328;2023-02-11T15:57:15;7.40;99.90
47576;DHT22;33304;52.456;13.328;2023-02-11T15:59:46;7.40;99.90
47576;DHT22;33304;52.456;13.328;2023-02-11T16:02:16;7.50;99.90
47576;DHT22;33304;52.456;13.328;2023-02-11T16:04:50;7.50;99.90
47576;DHT22;33304;52.456;13.328;2023-02-11T16:07:40;7.50;99.90
47576;DHT22;33304;52.456;13.328;2023-02-11T16:10:19;7.40;99.90
47576;DHT22;33304;52.456;13.328;2023-02-11T16:13:14;7.40;99.90
47576;DHT22;33304;52.456;13.328;2023-02-11T16:15:45;7.40;99.90